Time;durP1;ratioP1;P1;durP2;ratioP2;P2;SDS_P1;SDS_P2;PMS_P1;PMS_P2;Temp;Humidity;BMP_temperature;BMP_pressure;BME280_temperature;BME280_humidity;BME280_pressure;Samples;Min_cycle;Max_cycle;Signal;HPM_P1;HPM_P2
2024/03/14 00:02:11;;;;;;;2.30;2.10;;;7.40;99.90;;;;;;5026612;28;20396;-80
2024/03/14 00:04:37;;;;;;;3.55;2.47;;;7.40;99.90;;;;;;5023344;28;20392;-81
2024/03/14 00:07:02;;;;;;;2.70;1.97;;;7.40;99.90;;;;;;5023417;28;20849;-81
2024/03/14 00:09:29;;;;;;;3.60;1.80;;;7.50;99.90;;;;;;5005860;28;20889;-80
2024/03/14 00:11:55;;;;;;;1.90;1.80;;;7.40;99.90;;;;;;5017082;28;20413;-80
2024/03/14 00:14:21;;;;;;;2.00;1.80;;;7.40;99.90;;;;;;5002142;28;20901;-80
2024/03/14 00:16:46;;;;;;;3.90;1.90;;;7.40;99.90;;;;;;5018761;28;20492;-81
2024/03/14 00:19:12;;;;;;;1.70;1.60;;;7.40;99.90;;;;;;5018736;28;20446;-80
2024/03/14 00:21:39;;;;;;;1.97;1.77;;;7.50;99.90;;;;;;4994186;28;20390;-79
2024/03/14 00:24:08;;;;;;;4.30;1.80;;;7.50;99.90;;;;;;5029463;28;20433;-79
2024/03/14 00:26:33;;;;;;;3.05;1.90;;;7.60;99.90;;;;;;5056942;28;20435;-79
2024/03/14 00:28:59;;;;;;;1.70;1.60;;;7.40;99.90;;;;;;5030280;28;20887;-81
2024/03/14 00:31:24;;;;;;;1.87;1.77;;;7.50;99.90;;;;;;5025951;28;20814;-80
2024/03/14 00:33:50;;;;;;;1.77;1.67;;;7.40;99.90;;;;;;5038477;28;20943;-80
2024/03/14 00:36:16;;;;;;;1.60;1.50;;;7.50;99.90;;;;;;5004682;28;20400;-81
2024/03/14 00:38:41;;;;;;;1.80;1.70;;;7.40;99.90;;;;;;5004798;28;20388;-81
2024/03/14 00:41:14;;;;;;;1.80;1.50;;;7.40;99.90;;;;;;5018651;28;20385;-81
2024/03/14 00:43:39;;;;;;;1.63;1.50;;;7.30;99.90;;;;;;5017047;28;20395;-80
2024/03/14 00:46:05;;;;;;;1.83;1.73;;;7.30;99.90;;;;;;4999288;28;20451;-80
2024/03/14 00:48:32;;;;;;;2.40;1.80;;;7.30;99.90;;;;;;5017742;28;20480;-80
2024/03/14 00:50:58;;;;;;;1.80;1.70;;;7.30;99.90;;;;;;5018714;28;20396;-80
2024/03/14 00:53:25;;;;;;;1.95;1.48;;;7.30;99.90;;;;;;4999621;28;20434;-80
2024/03/14 00:55:51;;;;;;;1.70;1.50;;;7.20;99.90;;;;;;4999235;28;20952;-80
2024/03/14 00:58:16;;;;;;;1.60;1.50;;;7.20;99.90;;;;;;5017696;28;20486;-80
2024/03/14 01:00:42;;;;;;;2.30;1.50;;;7.30;99.90;;;;;;5000340;28;20393;-81
2024/03/14 01:03:08;;;;;;;1.38;1.27;;;7.20;99.90;;;;;;5000077;28;20404;-80
2024/03/14 01:05:35;;;;;;;1.60;1.50;;;7.20;99.90;;;;;;4997976;28;20969;-80
2024/03/14 01:08:01;;;;;;;1.40;1.30;;;7.20;99.90;;;;;;4988146;28;20392;-80
2024/03/14 01:10:27;;;;;;;2.03;1.75;;;7.10;99.90;;;;;;5017798;28;20400;-80
2024/03/14 01:12:52;;;;;;;2.05;1.65;;;7.10;99.90;;;;;;4999415;28;21048;-80
2024/03/14 01:15:18;;;;;;;1.60;1.50;;;7.00;99.90;;;;;;5017848;28;20439;-81
2024/03/14 01:17:43;;;;;;;2.10;1.90;;;7.00;99.90;;;;;;5019241;28;20385;-81
2024/03/14 01:20:16;;;;;;;1.87;1.77;;;7.00;99.90;;;;;;5018933;28;20393;-81
2024/03/14 01:22:41;;;;;;;1.70;1.60;;;7.00;99.90;;;;;;5000836;28;20420;-81
2024/03/14 01:25:07;;;;;;;2.80;1.48;;;6.90;99.90;;;;;;5070505;23;20904;-83
2024/03/14 01:27:33;;;;;;;1.90;1.50;;;6.90;99.90;;;;;;5097059;28;20473;-83
2024/03/14 01:29:59;;;;;;;2.03;1.60;;;6.90;99.90;;;;;;5095270;28;20927;-83
2024/03/14 01:32:25;;;;;;;1.60;1.50;;;6.80;99.90;;;;;;5085434;28;21036;-83
2024/03/14 01:34:51;;;;;;;2.20;1.50;;;6.80;99.90;;;;;;5086231;28;20753;-83
2024/03/14 01:37:16;;;;;;;1.42;1.33;;;6.80;99.90;;;;;;5095979;28;20397;-83
2024/03/14 01:39:42;;;;;;;2.40;1.40;;;6.70;99.90;;;;;;5095870;28;20382;-83
2024/03/14 01:42:11;;;;;;;1.47;1.37;;;6.70;99.90;;;;;;5096256;28;20386;-83
2024/03/14 01:44:43;;;;;;;1.40;1.30;;;6.80;99.90;;;;;;5093454;28;20390;-83
2024/03/14 01:47:08;;;;;;;1.83;1.20;;;6.70;99.90;;;;;;5086557;28;20481;-83
2024/03/14 01:49:34;;;;;;;1.50;1.40;;;6.70;99.90;;;;;;5078900;28;20433;-83
2024/03/14 01:51:59;;;;;;;2.85;1.50;;;6.70;99.90;;;;;;5096136;28;20397;-83
2024/03/14 01:54:25;;;;;;;2.40;1.60;;;6.70;99.90;;;;;;5089035;28;20435;-81
2024/03/14 01:56:57;;;;;;;2.60;1.47;;;6.70;99.90;;;;;;5095811;28;20378;-83
2024/03/14 01:59:27;;;;;;;2.05;1.23;;;6.70;99.90;;;;;;5077782;28;20398;-82
2024/03/14 02:01:54;;;;;;;2.45;1.40;;;6.60;99.90;;;;;;5095103;28;20750;-82
2024/03/14 02:04:27;;;;;;;1.63;1.52;;;6.60;99.90;;;;;;5060396;28;20388;-84
2024/03/14 02:07:05;;;;;;;1.38;1.27;;;6.60;99.90;;;;;;5074058;28;20395;-83
2024/03/14 02:09:31;;;;;;;1.40;1.25;;;6.60;99.90;;;;;;5080977;28;20499;-82
2024/03/14 02:11:57;;;;;;;1.33;1.23;;;6.60;99.90;;;;;;5093794;28;20417;-83
2024/03/14 02:14:22;;;;;;;2.10;1.40;;;6.60;99.90;;;;;;5094954;28;20498;-83
2024/03/14 02:16:49;;;;;;;1.67;1.30;;;6.60;99.90;;;;;;5095101;28;20378;-83
2024/03/14 02:19:16;;;;;;;1.33;1.20;;;6.50;99.90;;;;;;5095116;28;20469;-82
2024/03/14 02:21:41;;;;;;;1.50;1.40;;;6.50;99.90;;;;;;5076270;28;20905;-82
2024/03/14 02:24:07;;;;;;;1.70;1.60;;;6.40;99.90;;;;;;5074365;28;20401;-82
2024/03/14 02:26:39;;;;;;;1.40;1.30;;;6.50;99.90;;;;;;5061740;28;20748;-83
2024/03/14 02:29:05;;;;;;;1.70;1.50;;;6.50;99.90;;;;;;5073354;28;20403;-83
2024/03/14 02:31:30;;;;;;;1.40;1.20;;;6.40;99.90;;;;;;5072266;28;20400;-84
2024/03/14 02:33:56;;;;;;;1.27;1.17;;;6.40;99.90;;;;;;5072713;28;20372;-83
2024/03/14 02:36:22;;;;;;;1.73;1.37;;;6.30;99.90;;;;;;5069091;28;20390;-82
2024/03/14 02:38:49;;;;;;;1.40;1.30;;;6.50;99.90;;;;;;5074129;28;20852;-81
2024/03/14 02:41:14;;;;;;;1.40;1.30;;;6.40;99.90;;;;;;5087312;28;20390;-83
2024/03/14 02:43:41;;;;;;;1.50;1.40;;;6.30;99.90;;;;;;5075769;28;20758;-82
2024/03/14 02:46:08;;;;;;;1.30;1.20;;;6.40;99.90;;;;;;5094057;28;20393;-82
2024/03/14 02:48:36;;;;;;;2.45;1.55;;;6.40;99.90;;;;;;5076071;28;20518;-83
2024/03/14 02:51:05;;;;;;;1.30;1.20;;;6.40;99.90;;;;;;5075877;28;20402;-82
2024/03/14 02:53:31;;;;;;;2.05;1.80;;;6.40;99.90;;;;;;5098161;28;20381;-81
2024/03/14 02:55:57;;;;;;;2.23;1.40;;;6.50;99.90;;;;;;5117317;28;20519;-83
2024/03/14 02:58:23;;;;;;;2.50;1.60;;;6.50;99.90;;;;;;5117788;28;20378;-84
2024/03/14 03:00:49;;;;;;;1.90;1.50;;;6.50;99.90;;;;;;5096699;28;20389;-82
2024/03/14 03:03:15;;;;;;;1.53;1.43;;;6.50;99.90;;;;;;5074426;28;20378;-81
2024/03/14 03:05:41;;;;;;;1.70;1.60;;;6.50;99.90;;;;;;5060412;28;20441;-82
2024/03/14 03:08:07;;;;;;;1.80;1.70;;;6.50;99.90;;;;;;5073821;28;20390;-82
2024/03/14 03:10:33;;;;;;;2.55;2.00;;;6.40;99.90;;;;;;5092449;28;20743;-82
2024/03/14 03:12:59;;;;;;;2.42;1.38;;;6.30;99.90;;;;;;5073947;28;20432;-82
2024/03/14 03:15:24;;;;;;;1.40;1.30;;;6.20;99.90;;;;;;5073970;28;20440;-82
2024/03/14 03:17:51;;;;;;;3.13;1.58;;;6.30;99.90;;;;;;5102742;28;20390;-82
2024/03/14 03:20:18;;;;;;;1.33;1.23;;;6.30;99.90;;;;;;5089011;28;20388;-82
2024/03/14 03:25:32;;;;;;;2.40;1.55;;;6.30;99.90;;;;;;5087564;28;20415;-83
2024/03/14 03:28:02;;;;;;;2.10;1.50;;;6.30;99.90;;;;;;5075287;28;20414;-81
2024/03/14 03:30:28;;;;;;;1.90;1.50;;;6.20;99.90;;;;;;5073760;28;20410;-83
2024/03/14 03:32:54;;;;;;;1.60;1.50;;;6.10;99.90;;;;;;5072385;28;20403;-83
2024/03/14 03:35:21;;;;;;;1.50;1.40;;;6.20;99.90;;;;;;5077812;28;20389;-83
2024/03/14 03:37:47;;;;;;;1.50;1.30;;;6.20;99.90;;;;;;5094351;28;20385;-80
2024/03/14 03:40:15;;;;;;;1.67;1.38;;;6.20;99.90;;;;;;5075903;28;20378;-81
2024/03/14 03:42:45;;;;;;;1.48;1.38;;;6.10;99.90;;;;;;5075618;28;20382;-80
2024/03/14 03:45:12;;;;;;;1.40;1.20;;;6.10;99.90;;;;;;5072603;28;20393;-80
2024/03/14 03:47:39;;;;;;;1.40;1.30;;;6.10;99.90;;;;;;5091592;28;20390;-80
2024/03/14 03:50:10;;;;;;;2.00;1.40;;;6.20;99.90;;;;;;5093458;28;20389;-80
2024/03/14 03:52:36;;;;;;;1.92;1.60;;;6.10;99.90;;;;;;5093765;28;20489;-80
2024/03/14 03:55:05;;;;;;;1.60;1.40;;;6.10;99.90;;;;;;5093076;28;20386;-82
2024/03/14 03:57:32;;;;;;;1.40;1.30;;;6.30;99.90;;;;;;5092617;28;20389;-80
2024/03/14 03:59:57;;;;;;;1.80;1.40;;;6.30;99.90;;;;;;5075263;28;20476;-82
2024/03/14 04:02:23;;;;;;;1.50;1.40;;;6.20;99.90;;;;;;5092407;28;20479;-80
2024/03/14 04:04:49;;;;;;;3.65;1.40;;;6.10;99.90;;;;;;5092564;28;20393;-80
2024/03/14 04:07:15;;;;;;;1.50;1.40;;;6.10;99.90;;;;;;5092876;28;20386;-81
2024/03/14 04:09:46;;;;;;;3.10;1.42;;;6.10;99.90;;;;;;5093168;28;20378;-80
2024/03/14 04:12:14;;;;;;;1.23;1.13;;;6.10;99.90;;;;;;5092258;28;20401;-81
2024/03/14 04:14:42;;;;;;;2.80;1.25;;;6.20;99.90;;;;;;5092263;28;20401;-80
2024/03/14 04:17:14;;;;;;;2.20;1.40;;;6.20;99.90;;;;;;5076943;28;20755;-80
2024/03/14 04:19:40;;;;;;;1.50;1.10;;;6.20;99.90;;;;;;5076693;28;20400;-82
2024/03/14 04:22:06;;;;;;;1.70;1.30;;;6.20;99.90;;;;;;5074374;28;20430;-81
2024/03/14 04:24:32;;;;;;;1.30;1.20;;;6.20;99.90;;;;;;5066056;28;20444;-81
2024/03/14 04:27:05;;;;;;;1.92;1.50;;;6.10;99.90;;;;;;5058268;28;20379;-81
2024/03/14 04:29:31;;;;;;;1.20;1.10;;;6.20;99.90;;;;;;5060971;28;20411;-80
2024/03/14 04:31:57;;;;;;;1.20;1.10;;;6.10;99.90;;;;;;5064800;28;20446;-81
2024/03/14 04:34:23;;;;;;;1.55;1.10;;;6.60;99.90;;;;;;5091112;28;20403;-81
2024/03/14 04:36:52;;;;;;;1.10;1.00;;;6.10;99.90;;;;;;5098540;28;20428;-82
2024/03/14 04:39:19;;;;;;;1.50;1.00;;;6.30;99.90;;;;;;5077832;28;20378;-81
2024/03/14 04:41:49;;;;;;;1.63;1.23;;;6.90;99.90;;;;;;5079594;28;20398;-84
2024/03/14 04:44:15;;;;;;;1.50;1.00;;;6.30;99.90;;;;;;5098537;28;20418;-83
2024/03/14 04:46:41;;;;;;;1.23;1.00;;;6.40;99.90;;;;;;5101946;28;20440;-80
2024/03/14 04:49:12;;;;;;;1.65;1.48;;;6.40;99.90;;;;;;5084982;28;20390;-81
2024/03/14 04:51:37;;;;;;;1.57;1.00;;;6.30;99.90;;;;;;5099929;28;20470;-81
2024/03/14 04:54:03;;;;;;;1.20;1.10;;;6.40;99.90;;;;;;5081283;28;20790;-82
2024/03/14 04:56:30;;;;;;;1.20;1.00;;;6.50;99.90;;;;;;5078757;28;20394;-82
2024/03/14 04:59:01;;;;;;;1.92;1.30;;;6.60;99.90;;;;;;5079661;28;20374;-82
2024/03/14 05:01:29;;;;;;;1.60;1.50;;;6.50;99.90;;;;;;5075926;28;20383;-81
2024/03/14 05:03:57;;;;;;;2.03;1.20;;;6.40;99.90;;;;;;5075337;28;20391;-82
2024/03/14 05:06:22;;;;;;;1.50;1.40;;;6.30;99.90;;;;;;5078774;28;20387;-80
2024/03/14 05:08:48;;;;;;;2.03;1.30;;;6.30;99.90;;;;;;5096350;28;20384;-81
2024/03/14 05:11:15;;;;;;;1.57;1.30;;;6.30;99.90;;;;;;5081025;28;20448;-83
2024/03/14 05:13:41;;;;;;;1.38;1.10;;;6.20;99.90;;;;;;5103071;28;20374;-82
2024/03/14 05:16:06;;;;;;;3.03;1.30;;;6.20;99.90;;;;;;5090549;28;20417;-81
2024/03/14 05:18:33;;;;;;;1.50;1.20;;;6.20;99.90;;;;;;5091688;28;20390;-80
2024/03/14 05:20:59;;;;;;;1.67;1.58;;;6.20;99.90;;;;;;5108144;28;20378;-80
2024/03/14 05:23:25;;;;;;;2.35;1.80;;;6.20;99.90;;;;;;5082675;28;20458;-81
2024/03/14 05:25:52;;;;;;;1.70;1.60;;;6.10;99.90;;;;;;5079719;28;20544;-82
2024/03/14 05:28:18;;;;;;;1.63;1.52;;;6.10;99.90;;;;;;5080146;28;20390;-82
2024/03/14 05:30:44;;;;;;;3.90;1.60;;;6.10;99.90;;;;;;5088717;28;20401;-82
2024/03/14 05:33:09;;;;;;;1.83;1.50;;;6.00;99.90;;;;;;5098679;28;20903;-83
2024/03/14 05:35:35;;;;;;;1.50;1.40;;;6.00;99.90;;;;;;5086105;28;20388;-81
2024/03/14 05:38:01;;;;;;;1.45;1.30;;;6.00;99.90;;;;;;5094192;28;20437;-80
2024/03/14 05:40:26;;;;;;;1.60;1.50;;;5.90;99.90;;;;;;5091042;28;20401;-80
2024/03/14 05:42:52;;;;;;;2.97;1.50;;;5.90;99.90;;;;;;5087308;28;20396;-80
2024/03/14 05:45:18;;;;;;;4.60;1.60;;;6.00;99.90;;;;;;5087908;28;20392;-81
2024/03/14 05:47:43;;;;;;;2.17;1.80;;;5.90;99.90;;;;;;5086151;28;20430;-82
2024/03/14 05:50:09;;;;;;;1.45;1.35;;;5.90;99.90;;;;;;5084702;28;20489;-80
2024/03/14 05:52:35;;;;;;;1.45;1.35;;;6.00;99.90;;;;;;5087387;28;20412;-81
2024/03/14 05:55:05;;;;;;;2.30;1.90;;;6.00;99.90;;;;;;5087998;28;20465;-80
2024/03/14 05:57:31;;;;;;;1.90;1.80;;;6.00;99.90;;;;;;5105457;28;20753;-81
2024/03/14 05:59:58;;;;;;;2.00;1.60;;;5.90;99.90;;;;;;5104901;28;20382;-80
2024/03/14 06:02:23;;;;;;;2.00;1.90;;;5.90;99.90;;;;;;5093325;28;20387;-82
2024/03/14 06:04:49;;;;;;;2.40;2.08;;;5.90;99.90;;;;;;5081688;28;20380;-81
2024/03/14 06:07:15;;;;;;;1.80;1.70;;;6.00;99.90;;;;;;5085761;28;20390;-82
2024/03/14 06:09:43;;;;;;;2.10;1.90;;;5.90;99.90;;;;;;5104374;28;20378;-81
2024/03/14 06:12:09;;;;;;;2.33;1.80;;;6.00;99.90;;;;;;5082180;28;20409;-82
2024/03/14 06:14:35;;;;;;;1.75;1.60;;;5.80;99.90;;;;;;5078990;28;20382;-83
2024/03/14 06:17:02;;;;;;;4.07;1.63;;;6.00;99.90;;;;;;5103154;28;20386;-83
2024/03/14 06:19:28;;;;;;;1.95;1.58;;;6.00;99.90;;;;;;5081098;28;20438;-81
2024/03/14 06:21:55;;;;;;;2.33;1.80;;;5.70;99.90;;;;;;5097981;28;20427;-82
2024/03/14 06:24:21;;;;;;;1.90;1.70;;;6.00;99.90;;;;;;5076191;28;20461;-83
2024/03/14 06:26:46;;;;;;;2.60;1.60;;;6.00;99.90;;;;;;5073861;28;20396;-83
2024/03/14 06:29:12;;;;;;;1.60;1.50;;;6.00;99.90;;;;;;5075757;28;20866;-83
2024/03/14 06:31:38;;;;;;;1.90;1.50;;;6.10;99.90;;;;;;5075330;28;20412;-83
2024/03/14 06:34:04;;;;;;;1.60;1.50;;;6.20;99.90;;;;;;5076025;28;20383;-83
2024/03/14 06:36:29;;;;;;;2.83;1.90;;;6.30;99.90;;;;;;5078486;28;20392;-83
2024/03/14 06:38:55;;;;;;;2.00;1.80;;;6.20;99.90;;;;;;5079281;28;20393;-83
2024/03/14 06:41:24;;;;;;;1.77;1.50;;;6.20;99.90;;;;;;5077879;28;20386;-83
2024/03/14 06:43:49;;;;;;;2.22;1.60;;;6.20;99.90;;;;;;5040153;28;20382;-84
2024/03/14 06:46:16;;;;;;;1.87;1.70;;;6.10;99.90;;;;;;5069974;28;20424;-80
2024/03/14 06:48:43;;;;;;;1.80;1.70;;;6.30;99.90;;;;;;5072254;28;20796;-80
2024/03/14 06:51:10;;;;;;;2.25;1.60;;;6.30;99.90;;;;;;5060493;28;20402;-81
2024/03/14 06:53:36;;;;;;;2.13;2.03;;;6.30;99.90;;;;;;5059037;28;20383;-81
2024/03/14 06:56:02;;;;;;;1.60;1.50;;;6.40;99.90;;;;;;5067724;28;20396;-81
2024/03/14 06:58:28;;;;;;;2.90;2.00;;;6.50;99.90;;;;;;5055281;28;20404;-80
2024/03/14 07:00:54;;;;;;;2.50;2.30;;;6.60;99.90;;;;;;5068851;28;20391;-82
2024/03/14 07:03:21;;;;;;;2.40;2.20;;;6.70;99.90;;;;;;5088741;28;20390;-83
2024/03/14 07:05:47;;;;;;;2.90;2.00;;;7.30;99.90;;;;;;5087134;28;20417;-82
2024/03/14 07:08:12;;;;;;;2.20;2.00;;;6.50;99.90;;;;;;5072159;28;20391;-83
2024/03/14 07:10:39;;;;;;;1.90;1.80;;;7.20;99.90;;;;;;5090879;28;20387;-84
2024/03/14 07:13:07;;;;;;;1.40;1.30;;;7.10;99.90;;;;;;5073503;28;20403;-83
2024/03/14 07:15:35;;;;;;;1.80;1.50;;;7.10;99.90;;;;;;5083428;28;20393;-84
2024/03/14 07:18:01;;;;;;;1.70;1.60;;;7.50;99.90;;;;;;5073679;28;20379;-83
2024/03/14 07:20:33;;;;;;;1.70;1.60;;;7.50;99.90;;;;;;5092814;28;20408;-83
2024/03/14 07:22:59;;;;;;;2.08;1.50;;;7.60;99.90;;;;;;5073673;28;20424;-83
2024/03/14 07:25:25;;;;;;;1.50;1.40;;;7.80;99.90;;;;;;5103737;28;20398;-84
2024/03/14 07:27:51;;;;;;;1.88;1.40;;;8.10;99.90;;;;;;5084055;28;20415;-84
2024/03/14 07:30:17;;;;;;;1.58;1.48;;;8.20;99.90;;;;;;5069166;28;20407;-84
2024/03/14 07:32:43;;;;;;;1.90;1.30;;;8.30;99.90;;;;;;5107830;22;20438;-81
2024/03/14 07:35:09;;;;;;;1.77;1.23;;;8.20;99.90;;;;;;5082487;28;20382;-81
2024/03/14 07:37:36;;;;;;;3.47;1.30;;;8.30;99.90;;;;;;5095407;28;20473;-80
2024/03/14 07:40:04;;;;;;;1.20;1.10;;;8.30;99.90;;;;;;5086809;28;20434;-80
2024/03/14 07:42:31;;;;;;;1.45;1.20;;;8.30;99.90;;;;;;5078277;28;20398;-82
2024/03/14 07:44:56;;;;;;;1.80;1.40;;;8.30;99.90;;;;;;5085416;28;20482;-82
2024/03/14 07:47:25;;;;;;;2.00;1.30;;;8.40;99.90;;;;;;5094489;28;20413;-83
2024/03/14 07:49:52;;;;;;;3.10;1.43;;;8.40;99.90;;;;;;5087245;28;20374;-82
2024/03/14 07:52:18;;;;;;;1.63;1.10;;;8.60;99.90;;;;;;5089535;28;20888;-81
2024/03/14 07:54:47;;;;;;;1.50;1.40;;;8.60;99.90;;;;;;5093903;28;20394;-81
2024/03/14 07:57:13;;;;;;;1.80;1.23;;;8.70;99.90;;;;;;5095787;28;20929;-81
2024/03/14 07:59:39;;;;;;;2.72;1.38;;;8.80;99.90;;;;;;5103857;28;20437;-81
2024/03/14 08:02:07;;;;;;;2.10;1.43;;;8.80;99.90;;;;;;5103184;28;20413;-81
2024/03/14 08:04:34;;;;;;;1.30;1.20;;;8.90;99.90;;;;;;5098250;28;20808;-80
2024/03/14 08:07:10;;;;;;;1.90;1.80;;;9.10;99.90;;;;;;5094277;28;20417;-80
2024/03/14 08:09:42;;;;;;;3.20;2.90;;;9.20;99.90;;;;;;5100471;28;20397;-80
2024/03/14 08:12:09;;;;;;;3.30;3.10;;;9.30;99.90;;;;;;5101082;28;20988;-81
2024/03/14 08:14:34;;;;;;;3.30;3.08;;;9.40;99.90;;;;;;5098992;28;20769;-80
2024/03/14 08:17:16;;;;;;;3.10;2.80;;;9.60;99.90;;;;;;5101282;28;20392;-80
2024/03/14 08:19:44;;;;;;;3.70;3.40;;;9.60;99.90;;;;;;5099797;28;20895;-80
2024/03/14 08:22:10;;;;;;;3.20;2.90;;;9.70;99.90;;;;;;5101547;28;20377;-80
2024/03/14 08:24:42;;;;;;;2.63;2.42;;;9.70;99.90;;;;;;5094901;28;20387;-80
2024/03/14 08:27:10;;;;;;;2.80;2.23;;;9.70;99.90;;;;;;5081163;28;20387;-80
2024/03/14 08:29:36;;;;;;;2.63;2.15;;;9.90;99.90;;;;;;5082501;28;20379;-81
2024/03/14 08:32:05;;;;;;;2.33;2.03;;;10.00;99.90;;;;;;5080460;28;20403;-81
2024/03/14 08:34:31;;;;;;;2.30;2.10;;;10.10;99.90;;;;;;5079766;28;20373;-80
2024/03/14 08:36:57;;;;;;;3.33;2.42;;;10.10;99.90;;;;;;5094910;28;20381;-81
2024/03/14 08:39:22;;;;;;;2.70;2.30;;;10.00;99.90;;;;;;5101711;28;20382;-80
2024/03/14 08:41:49;;;;;;;2.40;1.90;;;10.20;99.90;;;;;;5099247;28;20414;-80
2024/03/14 08:44:14;;;;;;;3.10;2.90;;;10.00;99.90;;;;;;5100040;28;20393;-80
2024/03/14 08:46:43;;;;;;;3.70;3.30;;;10.10;99.90;;;;;;5099049;28;20388;-80
2024/03/14 08:49:08;;;;;;;3.90;2.85;;;10.20;99.90;;;;;;5100846;28;20386;-81
2024/03/14 08:51:37;;;;;;;3.63;3.00;;;10.40;99.90;;;;;;5099373;28;20449;-80
2024/03/14 08:54:16;;;;;;;4.43;3.40;;;10.40;99.90;;;;;;5099749;28;20393;-80
2024/03/14 08:56:42;;;;;;;3.77;3.47;;;10.60;99.90;;;;;;5100863;28;20410;-81
2024/03/14 08:59:07;;;;;;;4.03;3.70;;;10.60;99.90;;;;;;5100490;28;20386;-80
2024/03/14 09:01:33;;;;;;;4.43;3.60;;;10.80;99.90;;;;;;5099801;28;20382;-80
2024/03/14 09:03:59;;;;;;;4.57;4.10;;;10.90;99.90;;;;;;5099617;28;20409;-81
2024/03/14 09:06:28;;;;;;;4.22;3.80;;;11.10;99.90;;;;;;5101659;28;20378;-80
2024/03/14 09:09:00;;;;;;;5.00;3.70;;;11.20;99.90;;;;;;5101034;28;20386;-81
2024/03/14 09:11:27;;;;;;;2.70;2.50;;;11.50;99.90;;;;;;5100291;28;20424;-80
2024/03/14 09:13:53;;;;;;;2.92;2.63;;;11.40;99.90;;;;;;5099521;28;20418;-80
2024/03/14 09:16:19;;;;;;;3.15;2.80;;;11.50;99.90;;;;;;5100789;28;20905;-81
2024/03/14 09:18:45;;;;;;;3.03;2.60;;;11.50;99.90;;;;;;5098955;28;20488;-80
2024/03/14 09:21:11;;;;;;;2.50;2.30;;;11.70;99.90;;;;;;5111476;28;20392;-80
2024/03/14 09:23:39;;;;;;;3.10;2.25;;;11.70;99.90;;;;;;5110070;28;20374;-80
2024/03/14 09:26:05;;;;;;;2.45;2.25;;;11.90;99.90;;;;;;5110474;28;20390;-80
2024/03/14 09:28:31;;;;;;;3.53;2.70;;;12.10;99.90;;;;;;5102571;28;20390;-81
2024/03/14 09:31:00;;;;;;;3.22;2.80;;;12.10;99.90;;;;;;5100593;28;20382;-81
2024/03/14 09:33:27;;;;;;;4.43;2.90;;;12.00;99.90;;;;;;5099873;28;20415;-80
2024/03/14 09:35:52;;;;;;;3.20;2.90;;;12.20;99.90;;;;;;5099263;28;20453;-80
2024/03/14 09:38:18;;;;;;;4.25;2.70;;;12.30;99.90;;;;;;5098580;28;20405;-80
2024/03/14 09:40:44;;;;;;;4.18;2.80;;;12.50;99.90;;;;;;5099183;28;20378;-80
2024/03/14 09:43:15;;;;;;;3.10;2.50;;;12.60;99.90;;;;;;5103854;28;20374;-80
2024/03/14 09:45:44;;;;;;;3.50;3.20;;;12.60;99.90;;;;;;5119357;28;20390;-83
2024/03/14 09:48:10;;;;;;;3.47;3.17;;;12.60;99.90;;;;;;5118898;28;20413;-79
2024/03/14 09:50:36;;;;;;;3.13;2.83;;;12.70;99.90;;;;;;5118574;28;20370;-79
2024/03/14 09:53:03;;;;;;;4.70;3.50;;;12.70;99.90;;;;;;5116070;28;20452;-79
2024/03/14 09:55:30;;;;;;;3.60;3.30;;;12.80;99.90;;;;;;5110766;28;20607;-80
2024/03/14 09:58:04;;;;;;;3.80;3.50;;;12.70;99.90;;;;;;5100445;28;20400;-80
2024/03/14 10:00:30;;;;;;;3.60;3.30;;;12.70;99.90;;;;;;5098611;28;20413;-80
2024/03/14 10:02:58;;;;;;;3.87;3.47;;;12.70;99.90;;;;;;5099310;28;20862;-80
2024/03/14 10:05:24;;;;;;;4.65;2.90;;;12.70;99.90;;;;;;5099372;28;20374;-80
2024/03/14 10:07:50;;;;;;;4.30;2.93;;;13.00;99.90;;;;;;5098879;28;20412;-80
2024/03/14 10:10:16;;;;;;;3.38;3.08;;;13.10;99.90;;;;;;5099765;28;20382;-80
2024/03/14 10:12:52;;;;;;;4.30;2.80;;;13.10;99.90;;;;;;5099268;28;20966;-80
2024/03/14 10:15:20;;;;;;;3.40;3.10;;;13.20;99.90;;;;;;5098727;28;20382;-80
2024/03/14 10:17:47;;;;;;;3.60;3.30;;;13.40;99.90;;;;;;5099091;28;20386;-82
2024/03/14 10:20:15;;;;;;;4.97;2.85;;;13.60;99.90;;;;;;5097778;28;20378;-80
2024/03/14 10:22:50;;;;;;;3.83;3.20;;;13.70;99.90;;;;;;5099105;28;20766;-80
2024/03/14 10:25:17;;;;;;;2.80;2.60;;;13.80;99.90;;;;;;5087479;28;20487;-80
2024/03/14 10:27:53;;;;;;;3.80;3.50;;;13.90;99.90;;;;;;5079352;28;20391;-80
2024/03/14 10:30:18;;;;;;;3.10;2.80;;;14.00;99.90;;;;;;5082797;28;20396;-80
2024/03/14 10:32:49;;;;;;;2.95;2.75;;;14.10;99.90;;;;;;5096756;28;20416;-80
2024/03/14 10:35:15;;;;;;;4.13;2.60;;;13.90;99.90;;;;;;5103415;28;20388;-80
2024/03/14 10:37:43;;;;;;;2.80;2.60;;;14.00;99.90;;;;;;5090471;28;20400;-79
2024/03/14 10:40:27;;;;;;;3.10;2.80;;;14.10;99.90;;;;;;5100628;28;20391;-79
2024/03/14 10:42:54;;;;;;;2.60;2.40;;;14.40;99.90;;;;;;5087202;28;20391;-80
2024/03/14 10:45:21;;;;;;;2.70;2.50;;;14.40;99.90;;;;;;5102374;28;20390;-79
2024/03/14 10:47:50;;;;;;;4.00;2.40;;;14.50;99.90;;;;;;5094553;28;20390;-80
2024/03/14 10:50:16;;;;;;;2.35;2.15;;;14.60;99.90;;;;;;5080669;28;20472;-79
2024/03/14 10:52:46;;;;;;;2.47;2.20;;;14.80;99.90;;;;;;5090278;28;20421;-79
2024/03/14 10:55:14;;;;;;;2.30;2.10;;;15.00;99.90;;;;;;5090174;28;20415;-80
2024/03/14 10:57:41;;;;;;;2.30;2.10;;;15.00;99.90;;;;;;5093831;28;20411;-80
2024/03/14 11:00:14;;;;;;;3.07;1.90;;;15.30;99.90;;;;;;5096463;28;20897;-80
2024/03/14 11:02:42;;;;;;;2.23;1.60;;;15.30;99.90;;;;;;5097148;28;20378;-80
2024/03/14 11:05:10;;;;;;;2.55;1.50;;;15.50;99.90;;;;;;5093638;28;20382;-80
2024/03/14 11:07:37;;;;;;;1.80;1.70;;;15.90;99.90;;;;;;5095494;28;20467;-80
2024/03/14 11:10:08;;;;;;;1.90;1.50;;;15.90;99.90;;;;;;5096470;28;20382;-81
2024/03/14 11:12:34;;;;;;;2.13;1.85;;;15.70;99.90;;;;;;5094428;28;20422;-81
2024/03/14 11:15:06;;;;;;;2.20;2.00;;;16.00;99.90;;;;;;5094761;28;20382;-81
2024/03/14 11:17:35;;;;;;;2.33;2.13;;;16.20;99.90;;;;;;5078606;28;21922;-81
2024/03/14 11:20:04;;;;;;;4.03;1.90;;;16.30;99.90;;;;;;5096891;28;20382;-80
2024/03/14 11:22:32;;;;;;;2.78;1.90;;;16.20;99.90;;;;;;5095811;28;20422;-81
2024/03/14 11:24:59;;;;;;;2.10;1.90;;;16.60;99.90;;;;;;5095495;28;20398;-81
2024/03/14 11:27:26;;;;;;;2.22;1.95;;;16.60;99.90;;;;;;5098396;28;20389;-81
2024/03/14 11:29:52;;;;;;;2.00;1.80;;;17.00;99.90;;;;;;5099418;28;20414;-81
2024/03/14 11:32:23;;;;;;;1.80;1.70;;;17.50;99.90;;;;;;5098143;28;20933;-81
2024/03/14 11:34:49;;;;;;;2.00;1.80;;;17.50;99.90;;;;;;5099216;28;20374;-80
2024/03/14 11:37:15;;;;;;;1.95;1.58;;;18.10;99.90;;;;;;5099934;28;20385;-81
2024/03/14 11:39:46;;;;;;;1.50;1.30;;;17.90;99.90;;;;;;5097894;28;20377;-81
2024/03/14 11:42:16;;;;;;;1.67;1.00;;;18.10;99.90;;;;;;5097722;28;20378;-80
2024/03/14 11:44:47;;;;;;;1.40;1.00;;;18.20;99.90;;;;;;5097963;28;20413;-80
2024/03/14 11:47:19;;;;;;;1.20;1.00;;;18.60;99.90;;;;;;5098822;28;20466;-81
2024/03/14 11:49:46;;;;;;;1.55;0.80;;;18.80;99.90;;;;;;5099265;28;20378;-81
2024/03/14 11:52:15;;;;;;;2.00;1.10;;;19.70;99.90;;;;;;5098989;28;20412;-81
2024/03/14 11:54:42;;;;;;;1.17;0.85;;;20.50;99.90;;;;;;5097004;28;20431;-82
2024/03/14 11:57:16;;;;;;;1.10;0.75;;;21.30;99.90;;;;;;5098036;28;20389;-82
2024/03/14 11:59:45;;;;;;;2.20;0.80;;;21.50;99.90;;;;;;5100012;28;20817;-79
2024/03/14 12:02:11;;;;;;;0.90;0.70;;;22.10;99.90;;;;;;5098291;28;20385;-80
2024/03/14 12:04:36;;;;;;;1.13;0.60;;;22.50;99.90;;;;;;5100588;28;20762;-80
2024/03/14 12:07:07;;;;;;;1.20;0.60;;;21.50;99.90;;;;;;5105445;28;20378;-81
2024/03/14 12:09:35;;;;;;;0.70;0.50;;;21.40;99.90;;;;;;5099766;28;20388;-81
2024/03/14 12:12:01;;;;;;;1.10;0.60;;;21.00;99.90;;;;;;5099005;28;20402;-81
2024/03/14 12:14:28;;;;;;;0.67;0.60;;;20.70;99.90;;;;;;5099403;28;20378;-82
2024/03/14 12:16:54;;;;;;;1.08;0.80;;;19.70;99.90;;;;;;5098068;28;20389;-81
2024/03/14 12:19:20;;;;;;;2.00;0.60;;;19.60;99.90;;;;;;5099018;28;20386;-81
2024/03/14 12:21:55;;;;;;;0.80;0.70;;;19.10;99.90;;;;;;5097853;28;21066;-81
2024/03/14 12:24:23;;;;;;;0.70;0.60;;;19.80;99.90;;;;;;5094989;28;20457;-80
2024/03/14 12:26:49;;;;;;;1.45;0.70;;;19.70;99.90;;;;;;5079564;28;20375;-81
2024/03/14 12:29:16;;;;;;;0.75;0.65;;;20.30;99.90;;;;;;5079677;28;20394;-81
2024/03/14 12:31:46;;;;;;;1.05;0.70;;;20.60;99.90;;;;;;5077172;28;20412;-81
2024/03/14 12:34:13;;;;;;;0.73;0.50;;;21.00;99.90;;;;;;5076609;28;20388;-79
2024/03/14 12:36:39;;;;;;;0.75;0.50;;;21.80;99.90;;;;;;5079225;28;20911;-81
2024/03/14 12:39:05;;;;;;;0.77;0.50;;;21.50;99.90;;;;;;5081974;28;20376;-81
2024/03/14 12:41:33;;;;;;;1.33;0.50;;;21.40;99.90;;;;;;5078757;28;20390;-81
2024/03/14 12:43:59;;;;;;;1.60;0.90;;;21.60;99.90;;;;;;5080384;28;20477;-82
2024/03/14 12:46:24;;;;;;;0.82;0.57;;;21.80;99.90;;;;;;5079752;28;20910;-81
2024/03/14 12:48:51;;;;;;;1.60;0.73;;;20.70;99.90;;;;;;5092577;28;20408;-81
2024/03/14 12:51:23;;;;;;;1.70;0.60;;;20.30;99.90;;;;;;5099781;28;20469;-79
2024/03/14 12:53:54;;;;;;;1.50;0.80;;;21.00;99.90;;;;;;5099672;28;20430;-80
2024/03/14 12:56:19;;;;;;;1.60;0.80;;;21.10;99.90;;;;;;5099487;28;20516;-80